Time;durP1;ratioP1;P1;durP2;ratioP2;P2;SDS_P1;SDS_P2;PMS_P1;PMS_P2;Temp;Humidity;BMP_temperature;BMP_pressure;BME280_temperature;BME280_humidity;BME280_pressure;Samples;Min_cycle;Max_cycle;Signal;HPM_P1;HPM_P2
2023/08/31 00:01:35;;;;;;;4.07;2.60;;;16.90;88.50;;;19.60;56.94;100456.09;5015129;28;20191;-65
2023/08/31 00:04:04;;;;;;;3.40;2.10;;;16.80;87.80;;;19.50;57.35;100463.91;5015224;28;20172;-65
2023/08/31 00:06:31;;;;;;;3.27;2.37;;;16.80;87.70;;;19.37;57.17;100473.00;5014842;28;20217;-65
2023/08/31 00:08:58;;;;;;;2.43;2.20;;;16.80;87.90;;;19.30;57.77;100472.31;5015118;28;20233;-66
2023/08/31 00:11:25;;;;;;;3.80;2.60;;;16.70;88.00;;;19.31;57.35;100470.47;5014792;28;20199;-67
2023/08/31 00:13:54;;;;;;;2.40;2.13;;;16.70;88.30;;;19.29;57.58;100476.03;5013648;28;20704;-66
2023/08/31 00:16:27;;;;;;;2.70;2.30;;;16.70;88.40;;;19.33;57.47;100471.03;5014442;28;20241;-67
2023/08/31 00:18:55;;;;;;;2.70;2.50;;;16.70;89.20;;;19.28;57.32;100474.41;5014573;28;20211;-66
2023/08/31 00:21:23;;;;;;;3.10;2.30;;;16.60;87.70;;;19.25;57.38;100474.09;5013565;28;20197;-66
2023/08/31 00:23:50;;;;;;;4.53;2.50;;;16.60;87.70;;;19.19;57.07;100464.34;5014354;28;20675;-66
2023/08/31 00:26:17;;;;;;;5.23;2.30;;;16.60;87.40;;;19.11;57.20;100456.75;5014239;28;20238;-66
2023/08/31 00:28:44;;;;;;;2.63;2.20;;;16.50;87.40;;;19.09;58.11;100464.19;5013351;28;20199;-66
2023/08/31 00:31:12;;;;;;;4.00;2.20;;;16.50;88.60;;;19.04;57.23;100462.19;5014482;28;20227;-66
2023/08/31 00:33:40;;;;;;;2.70;2.17;;;16.40;87.70;;;18.98;57.25;100463.16;5013906;28;20258;-66
2023/08/31 00:36:07;;;;;;;3.47;2.23;;;16.40;87.60;;;18.90;57.39;100467.00;5014094;28;20235;-66
2023/08/31 00:38:35;;;;;;;3.77;2.13;;;16.40;87.60;;;18.84;57.55;100472.47;5013873;28;20199;-66
2023/08/31 00:41:02;;;;;;;2.60;2.27;;;16.30;87.80;;;18.80;58.10;100466.78;5014486;28;20222;-64
2023/08/31 00:43:29;;;;;;;1.90;1.80;;;16.30;88.20;;;18.84;57.76;100472.47;5014430;28;20249;-65
2023/08/31 00:45:58;;;;;;;3.87;2.53;;;16.20;88.00;;;18.87;57.45;100474.66;5013831;28;20222;-66
2023/08/31 00:48:27;;;;;;;4.80;2.40;;;16.20;88.10;;;18.89;57.43;100486.72;5014208;28;20655;-66
2023/08/31 00:50:54;;;;;;;4.57;2.13;;;16.20;88.00;;;18.90;57.39;100483.00;5014093;28;20215;-66
2023/08/31 00:53:23;;;;;;;2.27;2.03;;;16.20;87.80;;;18.90;57.08;100476.84;5014090;28;20678;-66
2023/08/31 00:55:50;;;;;;;4.87;2.60;;;16.20;87.80;;;18.91;57.38;100481.16;5013828;28;20623;-66
2023/08/31 00:58:17;;;;;;;2.57;1.80;;;16.20;87.90;;;18.91;57.25;100484.63;5013551;28;20242;-64
2023/08/31 01:00:55;;;;;;;2.87;2.30;;;16.20;88.40;;;18.96;57.29;100486.59;5013906;28;20619;-64
2023/08/31 01:03:39;;;;;;;2.27;2.07;;;16.20;87.90;;;18.96;56.90;100469.75;5013945;28;20277;-65
2023/08/31 01:06:15;;;;;;;2.23;1.90;;;16.20;87.40;;;18.93;56.62;100477.19;5013963;28;20207;-65
2023/08/31 01:08:56;;;;;;;2.33;2.13;;;16.20;87.20;;;18.88;56.52;100484.28;5013798;28;20194;-65
2023/08/31 01:11:34;;;;;;;4.13;1.93;;;16.10;86.90;;;18.81;56.67;100476.41;5013964;28;20206;-65
2023/08/31 01:14:11;;;;;;;3.60;2.60;;;16.10;86.90;;;18.78;56.32;100479.53;5013999;28;20274;-66
2023/08/31 01:16:43;;;;;;;2.90;1.70;;;16.10;87.00;;;18.73;56.58;100471.41;5013064;28;20695;-65
2023/08/31 01:19:47;;;;;;;4.33;2.40;;;16.00;87.00;;;18.65;56.54;100476.31;5014009;28;20191;-66
2023/08/31 01:22:29;;;;;;;4.07;2.23;;;15.90;87.00;;;18.60;56.27;100479.69;5013982;28;20261;-65
2023/08/31 01:25:03;;;;;;;3.93;1.83;;;15.90;87.00;;;18.60;56.74;100482.34;5013715;28;20207;-65
2023/08/31 01:27:32;;;;;;;4.57;2.20;;;15.80;87.40;;;18.59;56.68;100486.03;5013781;28;20625;-65
2023/08/31 01:29:59;;;;;;;2.40;1.90;;;15.80;87.40;;;18.56;56.97;100478.53;5013769;28;20234;-67
2023/08/31 01:32:26;;;;;;;3.40;1.87;;;15.80;87.90;;;18.58;57.09;100473.78;5012442;28;20531;-65
2023/08/31 01:34:55;;;;;;;1.80;1.67;;;15.80;87.90;;;18.61;57.04;100478.63;5013364;28;20215;-65
2023/08/31 01:37:30;;;;;;;3.00;2.07;;;15.80;87.90;;;18.61;56.86;100475.16;5013149;28;20601;-65
2023/08/31 01:40:10;;;;;;;2.63;2.17;;;15.80;87.70;;;18.58;56.87;100473.78;5029258;28;20240;-65
2023/08/31 01:42:40;;;;;;;3.17;2.30;;;15.80;87.90;;;18.60;57.36;100471.69;5033396;28;20205;-65
2023/08/31 01:45:10;;;;;;;4.53;2.20;;;15.80;88.20;;;18.62;56.94;100464.25;5023493;28;20230;-65
2023/08/31 01:47:38;;;;;;;4.63;2.20;;;15.90;88.20;;;18.66;56.96;100476.06;5029553;28;20225;-65
2023/08/31 01:50:06;;;;;;;3.23;2.17;;;15.90;88.10;;;18.65;56.89;100469.13;5013850;28;20241;-66
2023/08/31 01:52:33;;;;;;;2.83;2.27;;;15.90;87.70;;;18.63;57.05;100471.22;5013497;28;20187;-65
2023/08/31 01:55:01;;;;;;;3.33;2.40;;;15.80;87.50;;;18.63;56.81;100481.06;5013292;28;20687;-66
2023/08/31 01:57:29;;;;;;;5.50;2.57;;;15.80;87.60;;;18.62;56.80;100474.91;5012742;28;20210;-66
2023/08/31 01:59:56;;;;;;;3.80;2.13;;;15.80;87.50;;;18.60;56.88;100484.19;5013378;28;20245;-65
2023/08/31 02:02:23;;;;;;;4.23;2.83;;;15.80;87.40;;;18.55;56.92;100478.75;5013388;28;20218;-65
2023/08/31 02:04:51;;;;;;;2.63;2.43;;;15.80;87.60;;;18.51;56.77;100478.41;5013177;28;20191;-66
2023/08/31 02:07:19;;;;;;;4.30;2.47;;;15.80;87.60;;;18.43;57.03;100491.22;5013254;28;20278;-66
2023/08/31 02:09:46;;;;;;;4.10;2.40;;;15.70;87.60;;;18.41;57.41;100483.47;5014926;28;20263;-66
2023/08/31 02:12:14;;;;;;;4.03;2.80;;;15.70;87.90;;;18.38;57.32;100489.25;5017090;28;20195;-66
2023/08/31 02:14:41;;;;;;;3.50;2.80;;;15.70;88.10;;;18.37;57.76;100487.66;5016869;28;20191;-66
2023/08/31 02:17:08;;;;;;;6.03;2.57;;;15.70;88.40;;;18.36;58.00;100495.88;5016743;28;20219;-66
2023/08/31 02:19:35;;;;;;;3.10;2.77;;;15.70;88.20;;;18.38;57.75;100494.59;5015773;28;20251;-66
2023/08/31 02:22:02;;;;;;;5.67;2.70;;;15.70;88.20;;;18.34;57.41;100488.13;5016644;28;20282;-65
2023/08/31 02:24:29;;;;;;;3.70;2.50;;;15.70;87.90;;;18.30;57.75;100486.97;5016156;28;20297;-65
2023/08/31 02:26:57;;;;;;;2.63;2.43;;;15.60;87.90;;;18.28;57.80;100500.50;5016613;28;20305;-65
2023/08/31 02:29:25;;;;;;;3.43;2.57;;;15.60;88.10;;;18.28;57.80;100494.34;5016684;28;20203;-66
2023/08/31 02:31:52;;;;;;;3.80;3.07;;;15.60;88.30;;;18.32;57.87;100492.88;5015065;28;20191;-65
2023/08/31 02:34:19;;;;;;;4.47;3.00;;;15.60;88.50;;;18.32;57.82;100484.88;5016795;28;20230;-66
2023/08/31 02:36:46;;;;;;;5.17;3.20;;;15.60;88.10;;;18.30;57.46;100496.81;5015944;28;20762;-65
2023/08/31 02:39:13;;;;;;;3.47;2.77;;;15.60;87.90;;;18.20;57.58;100494.72;5025282;28;20253;-65
2023/08/31 02:41:40;;;;;;;6.60;3.30;;;15.60;87.90;;;18.09;57.88;100496.31;5036145;28;20277;-65
2023/08/31 02:44:08;;;;;;;4.73;2.80;;;15.50;87.90;;;18.02;58.00;100502.78;5017786;28;20313;-65
2023/08/31 02:46:36;;;;;;;2.70;2.50;;;15.50;88.00;;;17.93;58.23;100498.81;5035667;28;20225;-65
2023/08/31 02:49:03;;;;;;;3.43;2.93;;;15.30;88.40;;;17.90;58.44;100502.75;5036136;28;20269;-65
2023/08/31 02:51:30;;;;;;;4.13;3.20;;;15.30;88.90;;;17.83;58.48;100501.25;5027646;28;20199;-65
2023/08/31 02:53:57;;;;;;;5.20;3.27;;;15.30;88.90;;;17.82;58.93;100499.63;5016020;28;20198;-65
2023/08/31 02:56:24;;;;;;;3.27;2.23;;;15.20;89.30;;;17.87;59.20;100503.22;5015827;28;20297;-65
2023/08/31 02:58:51;;;;;;;5.00;3.10;;;15.20;90.00;;;17.91;58.59;100503.56;4996458;28;20286;-65
2023/08/31 03:01:19;;;;;;;4.50;3.50;;;15.20;89.40;;;17.92;58.61;100506.03;4996599;28;20200;-64
2023/08/31 03:03:47;;;;;;;4.73;2.90;;;15.20;89.30;;;17.92;58.76;100510.53;4996460;28;20222;-65
2023/08/31 03:06:15;;;;;;;5.67;3.73;;;15.30;89.50;;;17.96;58.50;100511.69;4995866;28;20226;-67
2023/08/31 03:08:42;;;;;;;7.47;3.77;;;15.30;89.20;;;17.93;58.30;100501.47;4996384;28;20219;-65
2023/08/31 03:11:09;;;;;;;3.30;2.87;;;15.20;88.80;;;17.85;58.47;100504.50;4998887;28;20191;-64
2023/08/31 03:13:36;;;;;;;4.67;3.37;;;15.20;88.80;;;17.76;58.29;100505.88;5015431;28;20191;-65
2023/08/31 03:16:03;;;;;;;5.03;3.30;;;15.10;88.70;;;17.65;58.71;100510.09;5015107;28;20298;-65
2023/08/31 03:18:30;;;;;;;5.83;3.63;;;15.10;89.10;;;17.55;59.08;100509.81;5016029;28;20199;-67
2023/08/31 03:20:59;;;;;;;3.20;2.90;;;15.00;89.40;;;17.50;58.98;100512.31;5034667;28;20191;-65
2023/08/31 03:23:28;;;;;;;3.93;3.50;;;14.90;89.30;;;17.47;59.25;100513.56;5035326;28;20290;-66
2023/08/31 03:25:55;;;;;;;6.93;4.40;;;14.90;89.70;;;17.47;59.34;100518.09;5023767;28;20246;-65
2023/08/31 03:28:23;;;;;;;7.30;3.60;;;14.80;89.70;;;17.42;59.18;100512.63;5015274;28;20558;-66
2023/08/31 03:30:55;;;;;;;6.37;3.50;;;14.80;89.70;;;17.35;59.13;100510.03;5015402;28;20191;-65
2023/08/31 03:33:23;;;;;;;3.40;3.10;;;14.70;89.60;;;17.31;59.63;100524.00;5030756;28;20627;-65
2023/08/31 03:35:50;;;;;;;4.93;3.40;;;14.70;90.00;;;17.26;59.86;100516.72;5015161;28;20552;-66
2023/08/31 03:38:18;;;;;;;8.07;4.03;;;14.60;90.10;;;17.20;59.83;100525.59;5013464;28;20294;-65
2023/08/31 03:40:53;;;;;;;4.60;4.00;;;14.60;90.10;;;17.12;59.89;100523.22;5015290;28;20274;-63
2023/08/31 03:43:21;;;;;;;3.97;3.30;;;14.60;90.20;;;17.11;60.15;100526.13;5013316;28;20281;-66
2023/08/31 03:45:49;;;;;;;6.67;3.83;;;14.60;90.20;;;17.04;60.28;100520.88;5014718;28;20226;-65
2023/08/31 03:48:17;;;;;;;7.23;4.40;;;14.50;90.20;;;16.99;60.25;100525.22;5014813;28;20290;-65
2023/08/31 03:50:48;;;;;;;7.20;4.20;;;14.40;90.30;;;16.95;60.45;100527.50;5014902;28;20227;-64
2023/08/31 03:53:15;;;;;;;4.63;4.23;;;14.40;90.40;;;16.93;60.65;100522.41;4995349;28;20234;-65
2023/08/31 03:55:44;;;;;;;6.50;4.37;;;14.40;90.50;;;16.91;60.68;100524.47;5009979;28;20303;-65
2023/08/31 03:58:11;;;;;;;5.77;4.17;;;14.30;90.60;;;16.89;60.97;100531.06;5010162;28;20683;-64
2023/08/31 04:00:38;;;;;;;8.50;4.63;;;14.30;90.60;;;16.90;60.89;100522.06;5015369;28;20275;-65
2023/08/31 04:03:08;;;;;;;5.43;3.97;;;14.30;90.60;;;16.89;60.69;100523.06;5015173;28;20195;-65
2023/08/31 04:05:36;;;;;;;5.73;4.07;;;14.30;90.70;;;16.91;60.74;100528.97;5015200;28;20567;-63
2023/08/31 04:08:05;;;;;;;7.37;4.37;;;14.30;90.70;;;16.93;60.94;100530.38;5014994;28;20682;-65
2023/08/31 04:10:32;;;;;;;5.83;4.57;;;14.30;90.70;;;16.91;60.75;100526.31;5014416;28;20274;-66
2023/08/31 04:13:00;;;;;;;9.37;5.03;;;14.30;90.70;;;16.86;61.17;100534.16;5014427;28;20282;-66
2023/08/31 04:15:27;;;;;;;7.10;4.00;;;14.20;90.80;;;16.86;61.11;100531.47;5014798;28;20298;-66
2023/08/31 04:17:54;;;;;;;5.70;4.47;;;14.20;90.80;;;16.84;61.18;100531.72;5014641;28;20297;-67
2023/08/31 04:20:22;;;;;;;4.80;4.30;;;14.20;90.80;;;16.87;61.16;100531.28;5014570;28;20211;-67
2023/08/31 04:22:50;;;;;;;7.00;4.50;;;14.20;90.90;;;16.91;61.20;100536.97;5014597;28;20542;-65
2023/08/31 04:25:17;;;;;;;5.47;4.73;;;14.20;90.90;;;16.92;61.19;100536.72;5013862;28;20219;-65
2023/08/31 04:27:45;;;;;;;6.73;4.43;;;14.30;90.90;;;16.95;61.07;100547.97;5014064;28;20745;-65
2023/08/31 04:30:13;;;;;;;4.47;4.00;;;14.30;90.90;;;16.95;60.81;100540.78;5014658;28;20210;-66
2023/08/31 04:32:44;;;;;;;5.67;4.57;;;14.30;90.80;;;17.01;60.90;100544.41;5013113;28;20282;-66
2023/08/31 04:35:11;;;;;;;7.93;4.30;;;14.30;90.90;;;17.03;60.76;100540.50;5013775;28;20237;-66
2023/08/31 04:37:38;;;;;;;4.90;4.37;;;14.40;90.90;;;17.07;60.83;100539.03;5013891;28;20278;-69
2023/08/31 04:40:08;;;;;;;6.77;5.20;;;14.40;90.90;;;17.08;60.45;100540.66;5013954;28;20670;-66
2023/08/31 04:42:35;;;;;;;9.00;4.97;;;14.30;90.70;;;17.09;60.51;100539.63;5014132;28;20195;-66
2023/08/31 04:45:03;;;;;;;8.27;4.83;;;14.40;90.70;;;16.99;60.71;100546.50;5004345;28;20228;-67
2023/08/31 04:47:32;;;;;;;7.73;4.57;;;14.30;90.70;;;16.96;60.63;100550.41;5001640;28;20198;-63
2023/08/31 04:50:00;;;;;;;6.67;4.67;;;14.40;90.70;;;16.97;60.61;100556.53;5033647;28;20623;-66
2023/08/31 04:52:27;;;;;;;7.03;5.20;;;14.40;90.70;;;16.97;60.95;100546.72;5019828;28;20253;-65
2023/08/31 04:54:54;;;;;;;6.53;4.77;;;14.30;90.70;;;16.96;60.78;100547.75;5013327;28;20626;-66
2023/08/31 04:57:21;;;;;;;6.53;5.00;;;14.40;90.80;;;16.93;60.98;100550.84;5013383;28;20196;-65
2023/08/31 04:59:48;;;;;;;8.83;4.80;;;14.30;90.70;;;16.93;60.83;100548.19;5013840;28;20615;-65
2023/08/31 05:02:15;;;;;;;7.27;4.97;;;14.30;90.70;;;16.90;60.99;100549.44;5013680;28;20229;-67
2023/08/31 05:04:43;;;;;;;8.60;5.57;;;14.30;90.80;;;16.95;60.81;100553.31;5013498;28;20230;-65
2023/08/31 05:07:10;;;;;;;9.40;5.10;;;14.30;90.90;;;16.96;60.91;100547.75;5013631;28;20270;-66
2023/08/31 05:09:37;;;;;;;5.37;4.87;;;14.30;90.90;;;16.98;61.09;100556.31;5013522;28;20226;-66
2023/08/31 05:12:07;;;;;;;5.83;5.17;;;14.30;91.00;;;16.98;61.18;100555.50;5011408;28;20222;-66
2023/08/31 05:14:37;;;;;;;8.53;5.73;;;14.30;91.00;;;17.01;61.09;100557.72;5013067;28;20596;-65
2023/08/31 05:17:04;;;;;;;6.23;5.20;;;14.30;91.00;;;17.05;61.06;100561.56;5013729;28;20201;-66
2023/08/31 05:19:31;;;;;;;5.63;5.00;;;14.30;91.00;;;17.11;61.04;100566.81;5013599;28;20199;-65
2023/08/31 05:22:00;;;;;;;6.87;5.03;;;14.40;91.00;;;17.17;60.65;100567.78;5015781;28;20637;-65
2023/08/31 05:24:27;;;;;;;5.77;5.00;;;14.50;91.00;;;17.25;60.64;100568.31;5013376;28;20219;-66
2023/08/31 05:26:54;;;;;;;7.83;5.03;;;14.50;90.90;;;17.30;60.50;100571.13;5013035;28;20253;-66
2023/08/31 05:29:21;;;;;;;7.97;5.73;;;14.50;90.90;;;17.31;60.45;100567.41;5012930;28;20199;-67
2023/08/31 05:31:48;;;;;;;6.77;5.20;;;14.50;90.80;;;17.34;60.19;100571.47;5013204;28;20195;-67
2023/08/31 05:34:19;;;;;;;6.07;4.87;;;14.60;90.80;;;17.38;60.36;100578.78;5012787;28;20188;-65
2023/08/31 05:36:46;;;;;;;7.60;5.50;;;14.60;90.70;;;17.38;60.19;100573.47;5013187;28;20207;-65
2023/08/31 05:39:16;;;;;;;8.53;5.40;;;14.60;90.70;;;17.38;60.12;100573.47;5012869;28;20278;-67
2023/08/31 05:41:43;;;;;;;6.33;4.67;;;14.60;90.70;;;17.42;60.08;100581.81;5013684;28;20270;-65
2023/08/31 05:44:11;;;;;;;5.77;5.20;;;14.70;90.70;;;17.44;60.19;100583.22;5010885;28;20282;-65
2023/08/31 05:46:39;;;;;;;5.90;5.30;;;14.70;90.70;;;17.49;59.68;100582.56;5011836;28;20258;-65
2023/08/31 05:49:07;;;;;;;8.80;5.63;;;14.70;90.70;;;17.54;59.95;100582.72;4996442;28;20250;-68
2023/08/31 05:51:34;;;;;;;7.37;5.47;;;14.70;90.90;;;17.56;59.85;100581.47;5003846;28;20227;-66
2023/08/31 05:54:02;;;;;;;5.83;5.00;;;14.80;90.60;;;17.63;59.75;100585.88;5017064;28;20607;-66
2023/08/31 05:56:31;;;;;;;5.80;5.03;;;14.80;90.60;;;17.69;59.73;100582.31;5015519;28;20211;-65
2023/08/31 05:58:58;;;;;;;7.13;5.40;;;14.80;90.60;;;17.72;59.57;100584.53;5016347;28;20290;-66
2023/08/31 06:01:25;;;;;;;6.57;5.50;;;14.90;90.50;;;17.69;59.44;100591.13;5015487;28;20515;-67
2023/08/31 06:03:52;;;;;;;6.70;5.23;;;14.90;90.40;;;17.68;59.59;100589.50;5016214;28;20293;-68
2023/08/31 06:06:20;;;;;;;7.90;5.43;;;14.90;90.30;;;17.72;59.54;100587.19;5016061;28;20207;-67
2023/08/31 06:08:48;;;;;;;8.73;5.23;;;14.90;90.40;;;17.75;59.47;100584.09;5016034;28;20206;-68
2023/08/31 06:11:15;;;;;;;9.33;5.80;;;14.90;90.30;;;17.75;59.35;100587.56;5016211;28;20270;-66
2023/08/31 06:13:43;;;;;;;6.40;5.40;;;14.90;90.30;;;17.78;59.46;100588.97;5016287;28;20195;-66
2023/08/31 06:16:10;;;;;;;7.20;6.07;;;14.90;90.40;;;17.81;59.42;100588.50;5016143;28;20218;-67
2023/08/31 06:18:38;;;;;;;10.07;6.53;;;15.00;90.40;;;17.84;59.42;100588.88;5017810;28;20195;-66
2023/08/31 06:21:05;;;;;;;5.97;5.40;;;15.00;90.40;;;17.87;59.50;100593.78;5036001;28;20226;-65
2023/08/31 06:23:32;;;;;;;6.47;5.80;;;15.00;90.50;;;17.91;59.43;100599.44;5035424;28;20617;-66
2023/08/31 06:25:59;;;;;;;6.80;5.50;;;15.10;90.50;;;17.91;59.43;100599.44;5035262;28;20253;-66
2023/08/31 06:28:26;;;;;;;9.20;5.67;;;15.10;90.40;;;17.92;59.42;100606.41;5024316;28;20195;-66
2023/08/31 06:30:54;;;;;;;7.20;5.77;;;15.10;90.40;;;17.90;59.38;100597.84;5016222;28;20450;-66
2023/08/31 06:33:21;;;;;;;10.27;6.13;;;15.10;90.30;;;17.90;59.47;100603.94;5015773;28;20187;-66
2023/08/31 06:35:51;;;;;;;8.70;5.73;;;15.10;90.30;;;17.94;59.45;100599.81;5015480;28;20235;-67
2023/08/31 06:38:18;;;;;;;8.10;6.50;;;15.20;90.40;;;17.99;59.25;100601.81;5017558;28;20716;-66
2023/08/31 06:40:47;;;;;;;7.53;5.70;;;15.20;90.40;;;17.99;59.27;100601.81;5035239;28;20187;-66
2023/08/31 06:43:14;;;;;;;7.30;5.80;;;15.20;90.40;;;18.03;59.44;100613.63;5034972;28;20205;-66
2023/08/31 06:45:41;;;;;;;6.07;5.47;;;15.20;90.40;;;18.08;59.28;100611.09;5034844;28;20219;-66
2023/08/31 06:48:10;;;;;;;8.43;6.03;;;15.20;90.40;;;18.22;59.23;100607.19;5035134;28;20194;-67
2023/08/31 06:50:37;;;;;;;6.83;6.20;;;15.30;90.50;;;18.39;58.87;100602.84;5035394;28;20564;-66
2023/08/31 06:53:04;;;;;;;5.47;4.87;;;15.40;90.40;;;18.51;58.64;100606.38;5015864;28;20195;-66
2023/08/31 06:55:31;;;;;;;5.43;4.93;;;15.50;90.40;;;18.69;58.72;100606.28;5014904;28;20623;-66
2023/08/31 06:57:59;;;;;;;6.80;5.77;;;15.60;90.40;;;18.88;57.79;100606.97;5015548;28;20207;-66
2023/08/31 07:00:26;;;;;;;7.17;5.10;;;15.70;90.20;;;19.06;57.69;100608.72;5015185;28;20195;-66
2023/08/31 07:02:53;;;;;;;7.43;5.93;;;15.90;90.10;;;19.10;56.80;100615.19;5015889;28;20526;-66
2023/08/31 07:05:27;;;;;;;9.33;5.70;;;16.00;88.90;;;19.18;56.55;100612.19;5014853;28;20227;-66
2023/08/31 07:07:55;;;;;;;6.20;5.40;;;16.10;88.70;;;19.22;56.31;100610.66;5015667;28;20180;-66
2023/08/31 07:10:22;;;;;;;6.80;5.60;;;16.20;88.00;;;19.10;56.42;100615.19;5015136;28;20195;-66
2023/08/31 07:12:49;;;;;;;6.33;5.73;;;16.20;87.80;;;18.99;56.53;100619.53;5015119;28;20630;-65
2023/08/31 07:15:17;;;;;;;7.27;5.87;;;16.10;87.60;;;18.90;56.87;100627.03;5014649;28;20251;-65
2023/08/31 07:17:44;;;;;;;6.63;5.37;;;16.20;88.30;;;18.82;57.75;100619.41;5013926;28;20273;-65
2023/08/31 07:20:12;;;;;;;4.70;4.30;;;16.10;88.80;;;18.76;58.42;100622.97;5027531;28;20254;-65
2023/08/31 07:22:40;;;;;;;5.90;5.23;;;16.10;89.60;;;18.77;58.40;100621.13;5014919;28;20199;-65
2023/08/31 07:25:08;;;;;;;7.17;5.83;;;16.10;89.60;;;18.71;58.37;100620.19;5014514;28;20223;-65
2023/08/31 07:27:35;;;;;;;6.50;5.63;;;16.10;89.70;;;18.55;58.61;100618.19;5014708;28;20281;-66
2023/08/31 07:30:04;;;;;;;9.77;5.30;;;16.00;89.70;;;18.55;58.79;100617.38;5014248;28;20199;-65
2023/08/31 07:32:31;;;;;;;6.23;4.97;;;16.00;89.80;;;18.48;59.22;100622.81;5014241;28;20187;-66
2023/08/31 07:34:59;;;;;;;6.80;6.17;;;15.90;90.00;;;18.49;59.53;100610.31;5014345;28;20211;-65
2023/08/31 07:37:26;;;;;;;6.33;5.67;;;15.90;90.20;;;18.54;59.78;100626.44;5014428;28;20226;-67
2023/08/31 07:39:54;;;;;;;5.40;4.90;;;15.90;90.40;;;18.67;59.21;100627.03;5030451;28;20278;-67
2023/08/31 07:42:21;;;;;;;6.37;5.63;;;15.90;90.40;;;18.69;59.16;100624.94;5034615;28;20278;-67
2023/08/31 07:44:49;;;;;;;6.77;6.07;;;15.90;90.40;;;18.74;59.01;100622.41;5020233;28;20235;-66
2023/08/31 07:47:16;;;;;;;8.10;5.27;;;15.90;90.40;;;18.81;59.09;100628.44;5014536;28;20199;-66
2023/08/31 07:49:44;;;;;;;7.80;4.83;;;16.00;90.50;;;18.93;58.74;100631.91;5016285;28;20236;-69
2023/08/31 07:52:11;;;;;;;6.33;5.70;;;16.00;90.40;;;19.05;58.55;100633.75;5014674;28;20720;-69
2023/08/31 07:54:38;;;;;;;5.90;5.40;;;16.10;90.40;;;19.12;58.29;100631.78;5009429;28;20250;-66
2023/08/31 07:57:06;;;;;;;7.30;6.27;;;16.10;90.10;;;19.16;58.22;100635.63;5015765;28;20211;-65
2023/08/31 07:59:33;;;;;;;9.73;7.70;;;16.20;90.10;;;19.28;58.32;100634.56;5015893;28;20254;-65
2023/08/31 08:02:00;;;;;;;8.87;6.40;;;16.20;90.20;;;19.32;57.32;100640.25;5012579;28;20257;-66
2023/08/31 08:04:29;;;;;;;8.77;5.90;;;16.20;89.80;;;19.34;57.86;100643.50;5013329;28;20279;-66
2023/08/31 08:06:56;;;;;;;6.47;5.83;;;16.40;90.00;;;19.36;57.87;100646.78;5012019;28;20300;-65
2023/08/31 08:09:23;;;;;;;5.50;5.00;;;16.40;89.70;;;19.39;57.36;100635.63;5011425;28;20206;-70
2023/08/31 08:11:51;;;;;;;8.00;7.20;;;16.40;89.50;;;19.43;57.16;100644.78;5018169;28;20201;-66
2023/08/31 08:14:19;;;;;;;7.03;5.73;;;16.50;89.70;;;19.49;57.53;100646.53;5014330;28;20258;-64
2023/08/31 08:16:46;;;;;;;7.13;6.53;;;16.50;89.90;;;19.51;57.72;100647.94;5014571;28;20218;-66
2023/08/31 08:19:13;;;;;;;6.87;6.17;;;16.50;90.00;;;19.51;57.31;100642.59;5015541;28;20751;-66
2023/08/31 08:21:40;;;;;;;6.43;5.83;;;16.50;89.50;;;19.53;57.12;100645.84;5006669;28;20203;-66
2023/08/31 08:24:08;;;;;;;6.40;5.33;;;16.60;89.60;;;19.55;57.25;100645.59;5022407;28;20230;-66
2023/08/31 08:26:35;;;;;;;7.47;5.73;;;16.60;89.40;;;19.58;57.25;100651.28;5021229;28;20233;-66
2023/08/31 08:29:02;;;;;;;6.80;6.03;;;16.60;89.40;;;19.60;57.16;100653.72;5012783;28;20286;-66
2023/08/31 08:31:31;;;;;;;8.10;6.13;;;16.60;89.20;;;19.57;56.71;100648.81;5001748;28;20307;-66
2023/08/31 08:33:58;;;;;;;5.40;4.93;;;16.60;88.80;;;19.52;56.85;100656.72;5007620;28;20223;-65
2023/08/31 08:36:25;;;;;;;6.47;5.77;;;16.60;88.60;;;19.52;56.48;100656.72;5013242;28;20215;-66
2023/08/31 08:38:52;;;;;;;7.27;6.07;;;16.60;88.70;;;19.51;56.81;100655.13;5016849;28;20293;-66
2023/08/31 08:41:24;;;;;;;8.27;6.53;;;16.60;88.80;;;19.49;56.86;100657.22;5021295;28;20206;-66
2023/08/31 08:43:52;;;;;;;6.33;5.53;;;16.50;88.70;;;19.52;56.44;100656.72;5018992;28;20191;-66
2023/08/31 08:46:20;;;;;;;7.30;6.60;;;16.50;88.80;;;19.56;56.77;100657.91;5011553;28;20223;-66
2023/08/31 08:48:49;;;;;;;6.73;6.10;;;16.50;88.80;;;19.62;56.32;100664.16;5016439;28;20199;-66
2023/08/31 08:51:16;;;;;;;7.30;6.07;;;16.60;88.90;;;19.63;56.82;100661.25;5022643;28;20286;-66
2023/08/31 08:53:45;;;;;;;7.20;5.70;;;16.60;88.90;;;19.70;56.33;100669.13;5026943;28;20715;-66
2023/08/31 08:56:12;;;;;;;6.90;6.30;;;16.60;89.00;;;19.76;56.54;100660.97;5012738;28;20231;-66
2023/08/31 08:58:39;;;;;;;8.30;7.57;;;16.70;89.20;;;19.79;56.15;100673.06;5012777;28;20214;-67
2023/08/31 09:01:08;;;;;;;8.20;6.27;;;16.70;88.90;;;19.85;56.28;100672.13;5008197;28;20282;-67
2023/08/31 09:03:35;;;;;;;8.27;6.53;;;16.80;89.30;;;19.95;56.39;100681.13;5013599;28;20191;-67
2023/08/31 09:06:07;;;;;;;6.80;6.23;;;16.80;89.30;;;20.07;56.00;100687.25;5010765;28;20810;-67
2023/08/31 09:08:37;;;;;;;6.50;5.80;;;16.90;88.90;;;20.14;55.70;100693.28;5025601;28;20270;-66
2023/08/31 09:11:04;;;;;;;7.67;6.77;;;17.00;88.60;;;20.17;55.86;100698.16;5027567;28;20194;-66
2023/08/31 09:13:33;;;;;;;6.77;6.07;;;17.00;88.20;;;20.18;55.49;100699.75;5017591;28;20213;-66
2023/08/31 09:16:00;;;;;;;8.73;6.00;;;17.10;88.00;;;20.19;55.47;100696.06;5013537;28;20238;-67
2023/08/31 09:18:29;;;;;;;7.20;6.60;;;17.10;88.10;;;20.21;56.02;100699.28;5011800;28;20199;-67
2023/08/31 09:20:57;;;;;;;7.60;6.63;;;17.10;88.10;;;20.24;55.47;100709.53;5017568;28;20199;-67
2023/08/31 09:23:26;;;;;;;9.57;7.43;;;17.10;88.00;;;20.28;55.62;100709.06;5023361;28;20209;-66
2023/08/31 09:25:55;;;;;;;6.30;5.77;;;17.10;88.00;;;20.33;55.70;100699.28;5014522;28;20326;-66
2023/08/31 09:28:26;;;;;;;7.27;6.57;;;17.20;88.50;;;20.40;55.60;100702.59;5016761;28;20202;-66
2023/08/31 09:31:04;;;;;;;7.40;6.20;;;17.20;88.40;;;20.51;55.10;100700.94;5009022;28;20278;-65
2023/08/31 09:33:38;;;;;;;6.93;6.23;;;17.30;88.30;;;20.93;55.21;100696.84;5016724;28;20282;-66
2023/08/31 09:36:07;;;;;;;6.57;5.97;;;17.40;88.90;;;22.17;54.30;100696.19;5015653;28;20298;-66
2023/08/31 09:38:43;;;;;;;4.50;4.10;;;17.70;89.80;;;23.32;50.71;100695.59;5016229;28;20207;-66
2023/08/31 09:41:11;;;;;;;3.67;3.37;;;18.20;86.90;;;23.91;48.54;100703.47;5014943;28;20499;-68
2023/08/31 09:43:38;;;;;;;3.07;2.77;;;18.70;85.10;;;24.27;47.90;100699.03;5016128;28;20222;-66
2023/08/31 09:46:08;;;;;;;3.83;3.50;;;19.30;84.70;;;24.68;47.05;100693.44;5014151;28;20215;-66
2023/08/31 09:48:37;;;;;;;3.53;2.70;;;19.70;83.10;;;24.99;45.40;100686.19;5015939;28;20206;-66
2023/08/31 09:51:05;;;;;;;3.33;2.47;;;20.10;79.60;;;25.47;44.17;100685.63;5016138;28;20198;-66
2023/08/31 09:53:37;;;;;;;4.27;2.83;;;20.50;79.20;;;25.46;44.08;100689.38;5015114;28;20203;-65
2023/08/31 09:56:07;;;;;;;3.03;2.20;;;20.80;77.30;;;25.60;43.97;100694.22;5018693;28;20254;-66
2023/08/31 09:58:34;;;;;;;2.83;1.90;;;20.90;75.80;;;26.37;42.79;100683.59;5022006;28;20287;-66
2023/08/31 10:01:02;;;;;;;4.83;2.30;;;21.20;76.20;;;26.95;41.41;100683.72;5032152;28;20237;-66
2023/08/31 10:03:43;;;;;;;2.77;1.60;;;21.60;74.00;;;27.18;40.41;100682.94;5017666;28;20238;-66
2023/08/31 10:06:12;;;;;;;3.23;1.93;;;22.00;72.30;;;27.38;39.75;100672.78;5014481;28;20258;-67
2023/08/31 10:08:41;;;;;;;2.97;2.03;;;22.50;70.50;;;27.50;38.73;100678.56;4998205;28;20595;-66
2023/08/31 10:11:14;;;;;;;3.07;1.57;;;22.80;68.50;;;27.45;38.02;100677.84;5019304;28;20210;-66
2023/08/31 10:13:43;;;;;;;4.60;1.97;;;23.00;66.20;;;27.35;38.32;100673.31;5015541;28;20282;-66
2023/08/31 10:16:11;;;;;;;4.47;2.07;;;23.20;66.50;;;27.25;38.22;100681.53;5015509;28;20683;-66
2023/08/31 10:18:39;;;;;;;2.00;1.50;;;23.30;65.10;;;26.97;37.93;100674.25;5014165;28;20200;-66